sensor_id;sensor_type;location;lat;lon;timestamp;P1;durP1;ratioP1;P2;durP2;ratioP2
72060;SDS011;59925;52.136;5.420;2022-12-20T00:01:24;4.10;;;1.75;;
72060;SDS011;59925;52.136;5.420;2022-12-20T00:03:53;4.63;;;1.70;;
72060;SDS011;59925;52.136;5.420;2022-12-20T00:06:21;3.88;;;1.70;;
72060;SDS011;59925;52.136;5.420;2022-12-20T00:08:55;4.33;;;1.90;;
72060;SDS011;59925;52.136;5.420;2022-12-20T00:11:24;3.35;;;1.88;;
72060;SDS011;59925;52.136;5.420;2022-12-20T00:13:52;4.05;;;1.60;;
72060;SDS011;59925;52.136;5.420;2022-12-20T00:16:20;4.18;;;1.95;;
72060;SDS011;59925;52.136;5.420;2022-12-20T00:18:50;4.40;;;1.50;;
72060;SDS011;59925;52.136;5.420;2022-12-20T00:21:17;3.80;;;1.70;;
72060;SDS011;59925;52.136;5.420;2022-12-20T00:23:45;2.90;;;1.60;;
72060;SDS011;59925;52.136;5.420;2022-12-20T00:26:12;3.83;;;1.63;;
72060;SDS011;59925;52.136;5.420;2022-12-20T00:28:41;4.25;;;1.70;;
72060;SDS011;59925;52.136;5.420;2022-12-20T00:31:09;3.15;;;1.67;;
72060;SDS011;59925;52.136;5.420;2022-12-20T00:33:37;3.47;;;1.50;;
72060;SDS011;59925;52.136;5.420;2022-12-20T00:36:05;3.63;;;1.63;;
72060;SDS011;59925;52.136;5.420;2022-12-20T00:38:33;2.90;;;1.52;;
72060;SDS011;59925;52.136;5.420;2022-12-20T00:43:36;3.28;;;1.23;;
72060;SDS011;59925;52.136;5.420;2022-12-20T00:46:04;4.80;;;1.63;;
72060;SDS011;59925;52.136;5.420;2022-12-20T00:48:32;2.92;;;1.38;;
72060;SDS011;59925;52.136;5.420;2022-12-20T00:51:00;1.95;;;1.27;;
72060;SDS011;59925;52.136;5.420;2022-12-20T00:53:28;4.70;;;1.67;;
72060;SDS011;59925;52.136;5.420;2022-12-20T00:55:55;2.45;;;1.50;;
72060;SDS011;59925;52.136;5.420;2022-12-20T00:58:22;3.93;;;1.30;;
72060;SDS011;59925;52.136;5.420;2022-12-20T01:00:48;5.88;;;1.42;;
72060;SDS011;59925;52.136;5.420;2022-12-20T01:03:21;3.45;;;1.70;;
72060;SDS011;59925;52.136;5.420;2022-12-20T01:05:51;2.88;;;1.23;;
72060;SDS011;59925;52.136;5.420;2022-12-20T01:08:22;2.92;;;1.40;;
72060;SDS011;59925;52.136;5.420;2022-12-20T01:10:57;3.43;;;1.40;;
72060;SDS011;59925;52.136;5.420;2022-12-20T01:13:26;2.42;;;1.40;;
72060;SDS011;59925;52.136;5.420;2022-12-20T01:15:53;5.65;;;1.52;;
72060;SDS011;59925;52.136;5.420;2022-12-20T01:18:19;3.30;;;1.77;;
72060;SDS011;59925;52.136;5.420;2022-12-20T01:20:46;3.33;;;1.40;;
72060;SDS011;59925;52.136;5.420;2022-12-20T01:23:12;3.87;;;1.40;;
72060;SDS011;59925;52.136;5.420;2022-12-20T01:25:39;4.50;;;1.50;;
72060;SDS011;59925;52.136;5.420;2022-12-20T01:28:05;2.55;;;1.35;;
72060;SDS011;59925;52.136;5.420;2022-12-20T01:30:32;3.63;;;1.30;;
72060;SDS011;59925;52.136;5.420;2022-12-20T01:32:58;3.83;;;1.73;;
72060;SDS011;59925;52.136;5.420;2022-12-20T01:35:25;4.77;;;1.43;;
72060;SDS011;59925;52.136;5.420;2022-12-20T01:37:51;5.80;;;2.17;;
72060;SDS011;59925;52.136;5.420;2022-12-20T01:40:17;3.85;;;1.83;;
72060;SDS011;59925;52.136;5.420;2022-12-20T01:42:44;4.68;;;1.52;;
72060;SDS011;59925;52.136;5.420;2022-12-20T01:45:12;3.30;;;1.80;;
72060;SDS011;59925;52.136;5.420;2022-12-20T01:47:49;4.20;;;1.60;;
72060;SDS011;59925;52.136;5.420;2022-12-20T01:50:16;4.93;;;1.80;;
72060;SDS011;59925;52.136;5.420;2022-12-20T01:52:42;3.55;;;1.75;;
72060;SDS011;59925;52.136;5.420;2022-12-20T01:55:14;7.70;;;2.10;;
72060;SDS011;59925;52.136;5.420;2022-12-20T01:57:49;3.65;;;1.75;;
72060;SDS011;59925;52.136;5.420;2022-12-20T02:00:20;2.73;;;1.50;;
72060;SDS011;59925;52.136;5.420;2022-12-20T02:02:47;3.22;;;1.92;;
72060;SDS011;59925;52.136;5.420;2022-12-20T02:05:17;6.63;;;2.45;;
72060;SDS011;59925;52.136;5.420;2022-12-20T02:07:46;5.03;;;2.13;;
72060;SDS011;59925;52.136;5.420;2022-12-20T02:10:15;3.30;;;2.03;;
72060;SDS011;59925;52.136;5.420;2022-12-20T02:12:44;3.40;;;1.83;;
72060;SDS011;59925;52.136;5.420;2022-12-20T02:18:04;2.72;;;1.73;;
72060;SDS011;59925;52.136;5.420;2022-12-20T02:23:26;3.85;;;2.08;;
72060;SDS011;59925;52.136;5.420;2022-12-20T02:29:06;4.45;;;1.75;;
72060;SDS011;59925;52.136;5.420;2022-12-20T02:34:25;4.70;;;2.25;;
72060;SDS011;59925;52.136;5.420;2022-12-20T02:36:54;3.78;;;2.22;;
72060;SDS011;59925;52.136;5.420;2022-12-20T02:39:21;3.63;;;2.23;;
72060;SDS011;59925;52.136;5.420;2022-12-20T02:41:58;4.22;;;2.38;;
72060;SDS011;59925;52.136;5.420;2022-12-20T02:44:30;3.88;;;2.10;;
72060;SDS011;59925;52.136;5.420;2022-12-20T02:47:20;6.60;;;2.15;;
72060;SDS011;59925;52.136;5.420;2022-12-20T02:49:52;6.00;;;2.22;;
72060;SDS011;59925;52.136;5.420;2022-12-20T02:52:20;3.87;;;2.30;;
72060;SDS011;59925;52.136;5.420;2022-12-20T02:54:52;4.82;;;2.03;;
72060;SDS011;59925;52.136;5.420;2022-12-20T02:57:21;3.75;;;2.05;;
72060;SDS011;59925;52.136;5.420;2022-12-20T02:59:59;3.88;;;2.42;;
72060;SDS011;59925;52.136;5.420;2022-12-20T03:02:27;5.22;;;2.42;;
72060;SDS011;59925;52.136;5.420;2022-12-20T03:05:15;6.60;;;2.03;;
72060;SDS011;59925;52.136;5.420;2022-12-20T03:07:42;3.00;;;1.67;;
72060;SDS011;59925;52.136;5.420;2022-12-20T03:10:09;5.90;;;1.98;;
72060;SDS011;59925;52.136;5.420;2022-12-20T03:12:36;3.53;;;1.70;;
72060;SDS011;59925;52.136;5.420;2022-12-20T03:15:02;6.10;;;2.10;;
72060;SDS011;59925;52.136;5.420;2022-12-20T03:17:29;3.00;;;1.63;;
72060;SDS011;59925;52.136;5.420;2022-12-20T03:19:55;4.88;;;1.90;;
72060;SDS011;59925;52.136;5.420;2022-12-20T03:22:22;5.38;;;1.98;;
72060;SDS011;59925;52.136;5.420;2022-12-20T03:24:48;3.70;;;1.90;;
72060;SDS011;59925;52.136;5.420;2022-12-20T03:27:15;3.65;;;1.50;;
72060;SDS011;59925;52.136;5.420;2022-12-20T03:29:42;3.93;;;2.07;;
72060;SDS011;59925;52.136;5.420;2022-12-20T03:32:09;3.55;;;1.42;;
72060;SDS011;59925;52.136;5.420;2022-12-20T03:34:36;5.28;;;2.08;;
72060;SDS011;59925;52.136;5.420;2022-12-20T03:37:02;5.63;;;2.05;;
72060;SDS011;59925;52.136;5.420;2022-12-20T03:39:29;4.85;;;2.30;;
72060;SDS011;59925;52.136;5.420;2022-12-20T03:41:55;3.90;;;1.70;;
72060;SDS011;59925;52.136;5.420;2022-12-20T03:44:22;4.80;;;1.95;;
72060;SDS011;59925;52.136;5.420;2022-12-20T03:46:50;2.97;;;1.73;;
72060;SDS011;59925;52.136;5.420;2022-12-20T03:49:16;5.57;;;2.20;;
72060;SDS011;59925;52.136;5.420;2022-12-20T03:51:43;8.60;;;2.17;;
72060;SDS011;59925;52.136;5.420;2022-12-20T03:54:09;4.30;;;2.40;;
72060;SDS011;59925;52.136;5.420;2022-12-20T03:56:35;5.85;;;2.25;;
72060;SDS011;59925;52.136;5.420;2022-12-20T03:59:02;6.10;;;2.08;;
72060;SDS011;59925;52.136;5.420;2022-12-20T04:01:28;3.55;;;1.80;;
72060;SDS011;59925;52.136;5.420;2022-12-20T04:03:55;4.70;;;1.95;;
72060;SDS011;59925;52.136;5.420;2022-12-20T04:06:22;3.17;;;1.87;;
72060;SDS011;59925;52.136;5.420;2022-12-20T04:08:49;4.07;;;1.77;;
72060;SDS011;59925;52.136;5.420;2022-12-20T04:11:15;4.40;;;1.88;;
72060;SDS011;59925;52.136;5.420;2022-12-20T04:13:43;6.07;;;1.65;;
72060;SDS011;59925;52.136;5.420;2022-12-20T04:16:15;4.63;;;2.10;;
72060;SDS011;59925;52.136;5.420;2022-12-20T04:18:43;4.57;;;1.77;;
72060;SDS011;59925;52.136;5.420;2022-12-20T04:21:10;3.55;;;1.98;;
72060;SDS011;59925;52.136;5.420;2022-12-20T04:23:37;3.97;;;1.60;;
72060;SDS011;59925;52.136;5.420;2022-12-20T04:26:05;3.85;;;2.00;;
72060;SDS011;59925;52.136;5.420;2022-12-20T04:28:33;3.30;;;1.80;;
72060;SDS011;59925;52.136;5.420;2022-12-20T04:31:00;4.40;;;1.90;;
72060;SDS011;59925;52.136;5.420;2022-12-20T04:33:28;5.60;;;1.80;;
72060;SDS011;59925;52.136;5.420;2022-12-20T04:35:55;4.20;;;1.90;;
72060;SDS011;59925;52.136;5.420;2022-12-20T04:38:21;5.93;;;2.05;;
72060;SDS011;59925;52.136;5.420;2022-12-20T04:40:49;3.58;;;1.92;;
72060;SDS011;59925;52.136;5.420;2022-12-20T04:43:17;4.27;;;1.87;;
72060;SDS011;59925;52.136;5.420;2022-12-20T04:45:46;4.47;;;2.08;;
72060;SDS011;59925;52.136;5.420;2022-12-20T04:48:14;3.80;;;1.90;;
72060;SDS011;59925;52.136;5.420;2022-12-20T04:51:01;3.00;;;1.60;;
72060;SDS011;59925;52.136;5.420;2022-12-20T04:53:27;4.38;;;1.80;;
72060;SDS011;59925;52.136;5.420;2022-12-20T04:56:20;3.50;;;1.67;;
72060;SDS011;59925;52.136;5.420;2022-12-20T04:58:48;6.10;;;1.60;;
72060;SDS011;59925;52.136;5.420;2022-12-20T05:01:15;2.65;;;1.60;;
72060;SDS011;59925;52.136;5.420;2022-12-20T05:03:42;4.20;;;1.60;;
72060;SDS011;59925;52.136;5.420;2022-12-20T05:06:09;5.85;;;2.10;;
72060;SDS011;59925;52.136;5.420;2022-12-20T05:08:35;4.13;;;1.80;;
72060;SDS011;59925;52.136;5.420;2022-12-20T05:11:03;4.40;;;2.22;;
72060;SDS011;59925;52.136;5.420;2022-12-20T05:13:31;3.47;;;1.70;;
72060;SDS011;59925;52.136;5.420;2022-12-20T05:15:57;4.05;;;1.90;;
72060;SDS011;59925;52.136;5.420;2022-12-20T05:18:25;4.25;;;2.10;;
72060;SDS011;59925;52.136;5.420;2022-12-20T05:20:56;3.13;;;1.67;;
72060;SDS011;59925;52.136;5.420;2022-12-20T05:23:42;4.22;;;2.22;;
72060;SDS011;59925;52.136;5.420;2022-12-20T05:26:32;5.22;;;2.17;;
72060;SDS011;59925;52.136;5.420;2022-12-20T05:28:59;3.63;;;1.73;;
72060;SDS011;59925;52.136;5.420;2022-12-20T05:31:26;4.13;;;1.65;;
72060;SDS011;59925;52.136;5.420;2022-12-20T05:33:53;3.73;;;2.07;;
72060;SDS011;59925;52.136;5.420;2022-12-20T05:36:19;4.15;;;1.88;;
72060;SDS011;59925;52.136;5.420;2022-12-20T05:38:46;4.65;;;2.20;;
72060;SDS011;59925;52.136;5.420;2022-12-20T05:41:12;5.22;;;2.55;;
72060;SDS011;59925;52.136;5.420;2022-12-20T05:43:39;3.30;;;1.90;;
72060;SDS011;59925;52.136;5.420;2022-12-20T05:46:05;5.60;;;2.17;;
72060;SDS011;59925;52.136;5.420;2022-12-20T05:48:32;4.40;;;1.83;;
72060;SDS011;59925;52.136;5.420;2022-12-20T05:50:59;6.15;;;1.55;;
72060;SDS011;59925;52.136;5.420;2022-12-20T05:53:26;2.30;;;1.48;;
72060;SDS011;59925;52.136;5.420;2022-12-20T05:55:52;4.78;;;2.17;;
72060;SDS011;59925;52.136;5.420;2022-12-20T05:58:19;4.23;;;2.03;;
72060;SDS011;59925;52.136;5.420;2022-12-20T06:00:46;4.40;;;1.88;;
72060;SDS011;59925;52.136;5.420;2022-12-20T06:03:13;3.88;;;1.88;;
72060;SDS011;59925;52.136;5.420;2022-12-20T06:05:40;4.07;;;1.80;;
72060;SDS011;59925;52.136;5.420;2022-12-20T06:08:08;4.05;;;1.92;;
72060;SDS011;59925;52.136;5.420;2022-12-20T06:10:36;4.77;;;1.87;;
72060;SDS011;59925;52.136;5.420;2022-12-20T06:13:04;4.47;;;2.00;;
72060;SDS011;59925;52.136;5.420;2022-12-20T06:15:30;2.75;;;1.67;;
72060;SDS011;59925;52.136;5.420;2022-12-20T06:17:57;3.83;;;1.70;;
72060;SDS011;59925;52.136;5.420;2022-12-20T06:20:23;2.63;;;1.45;;
72060;SDS011;59925;52.136;5.420;2022-12-20T06:22:50;2.47;;;1.80;;
72060;SDS011;59925;52.136;5.420;2022-12-20T06:25:17;3.58;;;1.45;;
72060;SDS011;59925;52.136;5.420;2022-12-20T06:27:44;3.00;;;1.98;;
72060;SDS011;59925;52.136;5.420;2022-12-20T06:30:11;3.13;;;1.73;;
72060;SDS011;59925;52.136;5.420;2022-12-20T06:32:38;3.63;;;1.77;;
72060;SDS011;59925;52.136;5.420;2022-12-20T06:35:05;6.37;;;1.53;;
72060;SDS011;59925;52.136;5.420;2022-12-20T06:37:31;5.82;;;1.45;;
72060;SDS011;59925;52.136;5.420;2022-12-20T06:39:58;3.20;;;1.90;;
72060;SDS011;59925;52.136;5.420;2022-12-20T06:42:25;4.32;;;1.55;;
72060;SDS011;59925;52.136;5.420;2022-12-20T06:44:51;4.30;;;1.77;;
72060;SDS011;59925;52.136;5.420;2022-12-20T06:47:18;4.20;;;1.50;;
72060;SDS011;59925;52.136;5.420;2022-12-20T06:49:45;5.43;;;1.90;;
72060;SDS011;59925;52.136;5.420;2022-12-20T06:52:11;3.75;;;1.77;;
72060;SDS011;59925;52.136;5.420;2022-12-20T06:54:38;3.70;;;1.42;;
72060;SDS011;59925;52.136;5.420;2022-12-20T06:57:04;4.30;;;1.88;;
72060;SDS011;59925;52.136;5.420;2022-12-20T06:59:32;2.63;;;1.60;;
72060;SDS011;59925;52.136;5.420;2022-12-20T07:01:58;2.95;;;1.60;;
72060;SDS011;59925;52.136;5.420;2022-12-20T07:04:25;3.78;;;1.30;;
72060;SDS011;59925;52.136;5.420;2022-12-20T07:06:52;3.75;;;1.38;;
72060;SDS011;59925;52.136;5.420;2022-12-20T07:09:19;3.05;;;1.50;;
72060;SDS011;59925;52.136;5.420;2022-12-20T07:11:45;4.23;;;1.50;;
72060;SDS011;59925;52.136;5.420;2022-12-20T07:14:12;3.05;;;1.23;;
72060;SDS011;59925;52.136;5.420;2022-12-20T07:16:38;3.22;;;1.40;;
72060;SDS011;59925;52.136;5.420;2022-12-20T07:19:12;3.15;;;1.20;;
72060;SDS011;59925;52.136;5.420;2022-12-20T07:21:40;2.10;;;1.00;;
72060;SDS011;59925;52.136;5.420;2022-12-20T07:24:08;4.07;;;1.20;;
72060;SDS011;59925;52.136;5.420;2022-12-20T07:26:35;3.75;;;1.02;;
72060;SDS011;59925;52.136;5.420;2022-12-20T07:29:02;4.93;;;1.13;;
72060;SDS011;59925;52.136;5.420;2022-12-20T07:31:29;4.45;;;1.48;;
72060;SDS011;59925;52.136;5.420;2022-12-20T07:33:55;3.35;;;1.35;;
72060;SDS011;59925;52.136;5.420;2022-12-20T07:36:22;1.97;;;1.00;;
72060;SDS011;59925;52.136;5.420;2022-12-20T07:38:49;2.67;;;0.93;;
72060;SDS011;59925;52.136;5.420;2022-12-20T07:41:16;4.78;;;1.23;;
72060;SDS011;59925;52.136;5.420;2022-12-20T07:43:47;4.10;;;1.27;;
72060;SDS011;59925;52.136;5.420;2022-12-20T07:46:13;2.92;;;1.10;;
72060;SDS011;59925;52.136;5.420;2022-12-20T07:48:40;4.57;;;1.00;;
72060;SDS011;59925;52.136;5.420;2022-12-20T07:53:44;5.65;;;1.10;;
72060;SDS011;59925;52.136;5.420;2022-12-20T07:56:15;2.58;;;1.10;;
72060;SDS011;59925;52.136;5.420;2022-12-20T07:58:46;2.08;;;1.08;;
72060;SDS011;59925;52.136;5.420;2022-12-20T08:01:15;2.77;;;1.03;;
72060;SDS011;59925;52.136;5.420;2022-12-20T08:03:43;3.05;;;1.00;;
72060;SDS011;59925;52.136;5.420;2022-12-20T08:06:13;3.90;;;1.00;;
72060;SDS011;59925;52.136;5.420;2022-12-20T08:08:43;1.80;;;1.02;;
72060;SDS011;59925;52.136;5.420;2022-12-20T08:11:14;2.70;;;0.93;;
72060;SDS011;59925;52.136;5.420;2022-12-20T08:13:42;2.10;;;1.20;;
72060;SDS011;59925;52.136;5.420;2022-12-20T08:16:12;2.17;;;0.90;;
72060;SDS011;59925;52.136;5.420;2022-12-20T08:18:39;2.67;;;1.02;;
72060;SDS011;59925;52.136;5.420;2022-12-20T08:21:05;3.88;;;1.20;;
72060;SDS011;59925;52.136;5.420;2022-12-20T08:23:32;3.22;;;0.80;;
72060;SDS011;59925;52.136;5.420;2022-12-20T08:25:59;3.07;;;1.27;;
72060;SDS011;59925;52.136;5.420;2022-12-20T08:28:27;3.17;;;1.10;;
72060;SDS011;59925;52.136;5.420;2022-12-20T08:30:58;3.30;;;0.93;;
72060;SDS011;59925;52.136;5.420;2022-12-20T08:33:29;3.22;;;0.85;;
72060;SDS011;59925;52.136;5.420;2022-12-20T08:35:57;2.03;;;0.90;;
72060;SDS011;59925;52.136;5.420;2022-12-20T08:38:25;1.80;;;0.80;;
72060;SDS011;59925;52.136;5.420;2022-12-20T08:40:53;1.90;;;0.85;;
72060;SDS011;59925;52.136;5.420;2022-12-20T08:43:20;2.47;;;1.10;;
72060;SDS011;59925;52.136;5.420;2022-12-20T08:45:52;3.03;;;0.73;;
72060;SDS011;59925;52.136;5.420;2022-12-20T08:48:20;2.03;;;1.00;;
72060;SDS011;59925;52.136;5.420;2022-12-20T08:50:52;2.57;;;1.10;;
72060;SDS011;59925;52.136;5.420;2022-12-20T08:53:20;17.88;;;2.10;;
72060;SDS011;59925;52.136;5.420;2022-12-20T08:55:47;6.72;;;1.10;;
72060;SDS011;59925;52.136;5.420;2022-12-20T08:58:14;3.65;;;0.90;;
72060;SDS011;59925;52.136;5.420;2022-12-20T09:00:40;2.25;;;1.10;;
72060;SDS011;59925;52.136;5.420;2022-12-20T09:03:07;2.33;;;0.77;;
72060;SDS011;59925;52.136;5.420;2022-12-20T09:05:42;4.20;;;1.23;;
72060;SDS011;59925;52.136;5.420;2022-12-20T09:08:09;6.30;;;1.23;;
72060;SDS011;59925;52.136;5.420;2022-12-20T09:10:36;3.33;;;1.00;;
72060;SDS011;59925;52.136;5.420;2022-12-20T09:13:03;4.00;;;1.20;;
72060;SDS011;59925;52.136;5.420;2022-12-20T09:15:29;4.60;;;1.03;;
72060;SDS011;59925;52.136;5.420;2022-12-20T09:17:57;3.17;;;1.20;;
72060;SDS011;59925;52.136;5.420;2022-12-20T09:20:25;2.90;;;1.30;;
72060;SDS011;59925;52.136;5.420;2022-12-20T09:22:52;5.18;;;1.30;;
72060;SDS011;59925;52.136;5.420;2022-12-20T09:25:19;2.85;;;1.50;;
72060;SDS011;59925;52.136;5.420;2022-12-20T09:27:45;3.57;;;1.30;;
72060;SDS011;59925;52.136;5.420;2022-12-20T09:30:12;2.95;;;1.35;;
72060;SDS011;59925;52.136;5.420;2022-12-20T09:32:38;2.13;;;0.98;;
72060;SDS011;59925;52.136;5.420;2022-12-20T09:35:05;4.40;;;1.40;;
72060;SDS011;59925;52.136;5.420;2022-12-20T09:37:32;3.38;;;1.30;;
72060;SDS011;59925;52.136;5.420;2022-12-20T09:39:58;10.33;;;1.37;;
72060;SDS011;59925;52.136;5.420;2022-12-20T09:42:26;3.15;;;1.30;;
72060;SDS011;59925;52.136;5.420;2022-12-20T09:44:56;4.03;;;1.50;;
72060;SDS011;59925;52.136;5.420;2022-12-20T09:47:31;4.25;;;1.50;;
72060;SDS011;59925;52.136;5.420;2022-12-20T09:50:00;4.72;;;1.48;;
72060;SDS011;59925;52.136;5.420;2022-12-20T10:00:42;2.65;;;0.93;;
72060;SDS011;59925;52.136;5.420;2022-12-20T10:03:24;3.08;;;1.30;;
72060;SDS011;59925;52.136;5.420;2022-12-20T10:05:55;3.37;;;1.47;;
72060;SDS011;59925;52.136;5.420;2022-12-20T10:16:54;6.55;;;1.92;;
72060;SDS011;59925;52.136;5.420;2022-12-20T10:22:47;4.53;;;1.63;;
72060;SDS011;59925;52.136;5.420;2022-12-20T10:25:23;5.55;;;1.80;;
72060;SDS011;59925;52.136;5.420;2022-12-20T10:27:59;4.95;;;1.80;;
72060;SDS011;59925;52.136;5.420;2022-12-20T10:30:30;6.85;;;2.08;;
72060;SDS011;59925;52.136;5.420;2022-12-20T10:32:58;5.30;;;1.60;;
72060;SDS011;59925;52.136;5.420;2022-12-20T10:35:26;3.92;;;1.60;;
72060;SDS011;59925;52.136;5.420;2022-12-20T10:40:36;3.15;;;1.50;;
72060;SDS011;59925;52.136;5.420;2022-12-20T10:43:25;4.32;;;1.58;;
72060;SDS011;59925;52.136;5.420;2022-12-20T10:45:57;3.17;;;1.73;;
72060;SDS011;59925;52.136;5.420;2022-12-20T10:48:37;6.70;;;2.15;;
72060;SDS011;59925;52.136;5.420;2022-12-20T10:53:59;3.88;;;1.77;;
72060;SDS011;59925;52.136;5.420;2022-12-20T10:56:28;7.10;;;1.85;;
72060;SDS011;59925;52.136;5.420;2022-12-20T10:59:01;5.03;;;1.83;;
72060;SDS011;59925;52.136;5.420;2022-12-20T11:01:48;4.97;;;1.98;;
72060;SDS011;59925;52.136;5.420;2022-12-20T11:04:28;7.55;;;1.75;;
72060;SDS011;59925;52.136;5.420;2022-12-20T11:06:56;6.18;;;1.75;;
72060;SDS011;59925;52.136;5.420;2022-12-20T11:09:25;11.40;;;2.72;;
72060;SDS011;59925;52.136;5.420;2022-12-20T11:14:28;3.75;;;1.70;;
72060;SDS011;59925;52.136;5.420;2022-12-20T11:31:09;3.35;;;2.10;;
72060;SDS011;59925;52.136;5.420;2022-12-20T11:33:56;5.10;;;1.90;;
72060;SDS011;59925;52.136;5.420;2022-12-20T11:36:48;3.90;;;2.00;;
72060;SDS011;59925;52.136;5.420;2022-12-20T11:53:44;3.50;;;2.03;;
72060;SDS011;59925;52.136;5.420;2022-12-20T12:01:47;4.45;;;1.92;;
72060;SDS011;59925;52.136;5.420;2022-12-20T12:04:24;4.32;;;2.15;;
72060;SDS011;59925;52.136;5.420;2022-12-20T12:06:57;4.07;;;2.67;;
72060;SDS011;59925;52.136;5.420;2022-12-20T12:09:37;5.28;;;2.83;;
72060;SDS011;59925;52.136;5.420;2022-12-20T12:12:18;4.20;;;2.50;;
72060;SDS011;59925;52.136;5.420;2022-12-20T12:14:55;5.25;;;2.88;;
72060;SDS011;59925;52.136;5.420;2022-12-20T12:20:32;8.23;;;2.90;;
72060;SDS011;59925;52.136;5.420;2022-12-20T12:25:49;8.20;;;2.70;;
72060;SDS011;59925;52.136;5.420;2022-12-20T12:28:16;4.35;;;2.75;;
72060;SDS011;59925;52.136;5.420;2022-12-20T12:30:46;4.30;;;2.80;;
72060;SDS011;59925;52.136;5.420;2022-12-20T12:33:20;4.40;;;3.03;;
72060;SDS011;59925;52.136;5.420;2022-12-20T12:44:26;6.32;;;2.67;;
72060;SDS011;59925;52.136;5.420;2022-12-20T12:47:04;3.97;;;2.90;;
72060;SDS011;59925;52.136;5.420;2022-12-20T12:49:36;5.55;;;2.47;;
72060;SDS011;59925;52.136;5.420;2022-12-20T12:52:04;3.92;;;2.65;;
72060;SDS011;59925;52.136;5.420;2022-12-20T12:54:36;4.75;;;2.97;;
72060;SDS011;59925;52.136;5.420;2022-12-20T12:57:14;6.72;;;2.97;;
72060;SDS011;59925;52.136;5.420;2022-12-20T12:59:44;4.93;;;2.60;;
72060;SDS011;59925;52.136;5.420;2022-12-20T13:07:51;6.90;;;3.20;;
72060;SDS011;59925;52.136;5.420;2022-12-20T13:12:46;4.37;;;2.70;;
72060;SDS011;59925;52.136;5.420;2022-12-20T13:20:34;5.43;;;3.10;;
72060;SDS011;59925;52.136;5.420;2022-12-20T13:25:35;4.13;;;3.10;;
72060;SDS011;59925;52.136;5.420;2022-12-20T13:28:48;4.57;;;3.03;;
72060;SDS011;59925;52.136;5.420;2022-12-20T13:33:45;4.43;;;3.05;;
72060;SDS011;59925;52.136;5.420;2022-12-20T13:38:58;8.13;;;3.57;;
72060;SDS011;59925;52.136;5.420;2022-12-20T13:46:46;5.13;;;3.30;;
72060;SDS011;59925;52.136;5.420;2022-12-20T13:49:35;6.80;;;3.75;;
72060;SDS011;59925;52.136;5.420;2022-12-20T13:54:43;6.00;;;3.72;;
72060;SDS011;59925;52.136;5.420;2022-12-20T13:57:15;6.57;;;3.65;;
72060;SDS011;59925;52.136;5.420;2022-12-20T13:59:46;4.40;;;3.30;;
72060;SDS011;59925;52.136;5.420;2022-12-20T14:02:19;5.32;;;3.40;;
72060;SDS011;59925;52.136;5.420;2022-12-20T14:05:00;4.13;;;2.97;;
72060;SDS011;59925;52.136;5.420;2022-12-20T14:07:30;7.45;;;3.25;;
72060;SDS011;59925;52.136;5.420;2022-12-20T14:09:59;5.70;;;3.25;;
72060;SDS011;59925;52.136;5.420;2022-12-20T14:12:27;5.05;;;3.28;;
72060;SDS011;59925;52.136;5.420;2022-12-20T14:15:02;5.00;;;3.35;;
72060;SDS011;59925;52.136;5.420;2022-12-20T14:17:45;4.60;;;2.83;;
72060;SDS011;59925;52.136;5.420;2022-12-20T14:22:52;4.95;;;3.80;;
72060;SDS011;59925;52.136;5.420;2022-12-20T14:28:11;5.40;;;3.58;;
72060;SDS011;59925;52.136;5.420;2022-12-20T14:30:52;6.27;;;3.80;;
72060;SDS011;59925;52.136;5.420;2022-12-20T14:33:28;4.57;;;3.55;;
72060;SDS011;59925;52.136;5.420;2022-12-20T14:35:55;4.53;;;3.38;;
72060;SDS011;59925;52.136;5.420;2022-12-20T14:38:24;4.18;;;3.22;;
72060;SDS011;59925;52.136;5.420;2022-12-20T14:40:55;4.95;;;3.40;;
72060;SDS011;59925;52.136;5.420;2022-12-20T14:43:33;4.57;;;3.20;;
72060;SDS011;59925;52.136;5.420;2022-12-20T14:46:07;5.68;;;3.72;;
72060;SDS011;59925;52.136;5.420;2022-12-20T14:48:45;3.30;;;2.90;;
72060;SDS011;59925;52.136;5.420;2022-12-20T14:51:12;4.47;;;3.17;;
72060;SDS011;59925;52.136;5.420;2022-12-20T14:53:47;5.32;;;3.55;;
72060;SDS011;59925;52.136;5.420;2022-12-20T14:56:16;5.53;;;3.57;;
72060;SDS011;59925;52.136;5.420;2022-12-20T14:59:04;6.93;;;3.38;;
72060;SDS011;59925;52.136;5.420;2022-12-20T15:01:38;7.15;;;3.95;;
72060;SDS011;59925;52.136;5.420;2022-12-20T15:04:20;5.88;;;3.70;;
72060;SDS011;59925;52.136;5.420;2022-12-20T15:06:55;5.32;;;4.10;;
72060;SDS011;59925;52.136;5.420;2022-12-20T15:09:22;6.13;;;4.10;;
72060;SDS011;59925;52.136;5.420;2022-12-20T15:11:48;5.78;;;4.53;;
72060;SDS011;59925;52.136;5.420;2022-12-20T15:14:20;4.93;;;3.92;;
72060;SDS011;59925;52.136;5.420;2022-12-20T15:17:10;7.22;;;4.00;;
72060;SDS011;59925;52.136;5.420;2022-12-20T15:19:38;5.53;;;4.20;;
72060;SDS011;59925;52.136;5.420;2022-12-20T15:22:12;8.07;;;4.27;;
72060;SDS011;59925;52.136;5.420;2022-12-20T15:24:41;6.22;;;4.03;;
72060;SDS011;59925;52.136;5.420;2022-12-20T15:27:12;5.97;;;4.20;;
72060;SDS011;59925;52.136;5.420;2022-12-20T15:29:39;7.15;;;4.60;;
72060;SDS011;59925;52.136;5.420;2022-12-20T15:32:09;7.38;;;4.35;;
72060;SDS011;59925;52.136;5.420;2022-12-20T15:34:42;6.37;;;4.50;;
72060;SDS011;59925;52.136;5.420;2022-12-20T15:37:09;5.90;;;4.60;;
72060;SDS011;59925;52.136;5.420;2022-12-20T15:39:44;8.68;;;4.68;;
72060;SDS011;59925;52.136;5.420;2022-12-20T15:42:12;5.78;;;4.97;;
72060;SDS011;59925;52.136;5.420;2022-12-20T15:44:42;6.43;;;4.22;;
72060;SDS011;59925;52.136;5.420;2022-12-20T15:47:12;6.93;;;5.20;;
72060;SDS011;59925;52.136;5.420;2022-12-20T15:49:39;6.70;;;5.13;;
72060;SDS011;59925;52.136;5.420;2022-12-20T15:52:18;7.70;;;5.78;;
72060;SDS011;59925;52.136;5.420;2022-12-20T15:54:46;8.82;;;5.60;;
72060;SDS011;59925;52.136;5.420;2022-12-20T15:57:13;7.35;;;5.45;;
72060;SDS011;59925;52.136;5.420;2022-12-20T15:59:40;7.63;;;5.57;;
72060;SDS011;59925;52.136;5.420;2022-12-20T16:02:26;7.35;;;5.80;;
72060;SDS011;59925;52.136;5.420;2022-12-20T16:04:54;8.02;;;5.80;;
72060;SDS011;59925;52.136;5.420;2022-12-20T16:07:21;7.78;;;5.80;;
72060;SDS011;59925;52.136;5.420;2022-12-20T16:09:47;8.27;;;5.82;;
72060;SDS011;59925;52.136;5.420;2022-12-20T16:12:22;9.40;;;6.03;;
72060;SDS011;59925;52.136;5.420;2022-12-20T16:14:51;7.50;;;5.80;;
72060;SDS011;59925;52.136;5.420;2022-12-20T16:17:18;9.13;;;5.90;;
72060;SDS011;59925;52.136;5.420;2022-12-20T16:19:45;9.60;;;5.85;;
72060;SDS011;59925;52.136;5.420;2022-12-20T16:22:15;8.43;;;6.20;;
72060;SDS011;59925;52.136;5.420;2022-12-20T16:24:44;7.17;;;5.50;;
72060;SDS011;59925;52.136;5.420;2022-12-20T16:27:11;8.27;;;5.30;;
72060;SDS011;59925;52.136;5.420;2022-12-20T16:29:37;8.52;;;6.18;;
72060;SDS011;59925;52.136;5.420;2022-12-20T16:32:14;8.35;;;6.10;;
72060;SDS011;59925;52.136;5.420;2022-12-20T16:34:42;7.65;;;6.07;;
72060;SDS011;59925;52.136;5.420;2022-12-20T16:37:10;8.97;;;6.10;;
72060;SDS011;59925;52.136;5.420;2022-12-20T16:39:37;10.15;;;6.30;;
72060;SDS011;59925;52.136;5.420;2022-12-20T16:42:08;8.52;;;6.40;;
72060;SDS011;59925;52.136;5.420;2022-12-20T16:44:42;8.57;;;6.32;;
72060;SDS011;59925;52.136;5.420;2022-12-20T16:47:11;8.30;;;6.13;;
72060;SDS011;59925;52.136;5.420;2022-12-20T16:49:38;8.43;;;6.50;;
72060;SDS011;59925;52.136;5.420;2022-12-20T16:52:08;9.00;;;6.35;;
72060;SDS011;59925;52.136;5.420;2022-12-20T16:54:42;9.60;;;6.55;;
72060;SDS011;59925;52.136;5.420;2022-12-20T16:57:09;9.13;;;6.00;;
72060;SDS011;59925;52.136;5.420;2022-12-20T16:59:35;8.98;;;6.10;;
72060;SDS011;59925;52.136;5.420;2022-12-20T17:02:02;8.17;;;6.33;;
72060;SDS011;59925;52.136;5.420;2022-12-20T17:04:29;7.82;;;5.50;;
72060;SDS011;59925;52.136;5.420;2022-12-20T17:06:55;7.72;;;5.35;;
72060;SDS011;59925;52.136;5.420;2022-12-20T17:09:21;7.68;;;5.65;;
72060;SDS011;59925;52.136;5.420;2022-12-20T17:11:48;7.60;;;5.97;;